Terminal Aerodrome Forecast
Issued by NWS Cleveland, OH

Home | Current Version | Previous Version | Text Only | Print | Product List | Glossary Off
Versions: 1 2 3 4 5 6 7 8 9 10 11 12 13 14 15 16 17 18

000
FTUS41 KCLE 210541
TAFMFD
TAF
KMFD 210541Z 2106/2206 20015G25KT P6SM SCT250 WS020/22045KT
     FM211500 21018G30KT P6SM SCT100 BKN250
     FM220000 26012KT P6SM SCT015 OVC035
      TEMPO 2201/2203 4SM SHRA SCT008 OVC015
     FM220300 30012G20KT P6SM SCT006 OVC012
     FM220500 30010KT P6SM SCT015 BKN025=

USA.gov is the U.S. government's official web portal to all federal, state and local government web resources and services.